createdAt,value
2022-11-23T00:01:17.783Z,2.00
2022-11-23T00:11:17.400Z,2.30
2022-11-23T00:21:16.875Z,2.20
2022-11-23T00:31:16.664Z,1.90
2022-11-23T00:41:11.214Z,2.20
2022-11-23T00:51:10.698Z,2.20
2022-11-23T01:01:10.367Z,1.80
2022-11-23T01:11:10.086Z,2.00
2022-11-23T01:21:09.595Z,2.00
2022-11-23T01:31:09.233Z,1.90
2022-11-23T01:41:08.858Z,2.00
2022-11-23T01:51:08.493Z,2.00
2022-11-23T02:01:08.305Z,1.80
2022-11-23T02:11:07.917Z,2.00
2022-11-23T02:21:07.385Z,2.30
2022-11-23T02:31:07.171Z,2.00
2022-11-23T02:41:06.631Z,1.90
2022-11-23T02:51:06.262Z,2.10
2022-11-23T03:01:05.968Z,2.30
2022-11-23T03:11:05.708Z,2.00
2022-11-23T03:21:05.512Z,2.20
2022-11-23T03:31:04.961Z,2.30
2022-11-23T03:41:04.458Z,2.30
2022-11-23T03:51:04.079Z,2.10
2022-11-23T04:01:03.745Z,2.10
2022-11-23T04:11:03.334Z,2.10
2022-11-23T04:21:03.112Z,2.20
2022-11-23T04:31:02.590Z,2.10
2022-11-23T04:41:02.581Z,1.90
2022-11-23T04:51:01.886Z,1.90
2022-11-23T05:01:01.714Z,2.20
2022-11-23T05:11:01.311Z,2.10
2022-11-23T05:21:00.929Z,2.10
2022-11-23T05:31:00.539Z,1.80
2022-11-23T05:41:00.200Z,1.80
2022-11-23T05:51:03.872Z,1.80
2022-11-23T06:00:59.604Z,2.10
2022-11-23T06:10:59.053Z,1.90
2022-11-23T06:20:58.664Z,1.90
2022-11-23T06:30:58.320Z,1.80
2022-11-23T06:40:57.787Z,1.80
2022-11-23T06:50:57.411Z,1.80
2022-11-23T07:00:57.237Z,2.10
2022-11-23T07:10:56.957Z,2.10
2022-11-23T07:20:56.606Z,1.80
2022-11-23T07:30:56.101Z,2.10
2022-11-23T07:40:55.578Z,1.90
2022-11-23T07:50:55.205Z,1.80
2022-11-23T08:00:55.153Z,2.10
2022-11-23T08:10:54.914Z,2.40
2022-11-23T08:20:54.421Z,2.10
2022-11-23T08:30:53.900Z,2.10
2022-11-23T08:40:48.400Z,2.20
2022-11-23T08:50:48.033Z,2.20
2022-11-23T09:00:47.659Z,2.20
2022-11-23T09:10:47.127Z,2.50
2022-11-23T09:20:46.780Z,2.60
2022-11-23T09:30:46.549Z,2.70
2022-11-23T09:40:46.483Z,2.40
2022-11-23T09:50:45.869Z,2.30
2022-11-23T10:00:45.502Z,2.60
2022-11-23T10:10:44.911Z,2.20
2022-11-23T10:20:44.837Z,2.30
2022-11-23T10:30:44.341Z,2.70
2022-11-23T10:40:43.895Z,2.80
2022-11-23T10:50:43.379Z,2.50
2022-11-23T11:00:43.373Z,2.50
2022-11-23T11:10:42.713Z,2.60
2022-11-23T11:20:42.306Z,2.80
2022-11-23T11:30:41.975Z,2.70
2022-11-23T11:40:41.617Z,3.00
2022-11-23T11:50:41.400Z,3.10
2022-11-23T12:00:45.002Z,3.50
2022-11-23T12:10:40.645Z,3.10
2022-11-23T12:20:40.150Z,2.90
2022-11-23T12:30:39.936Z,3.10
2022-11-23T12:40:39.635Z,2.90
2022-11-23T12:50:39.213Z,2.80
2022-11-23T13:00:38.882Z,2.90
2022-11-23T13:10:38.319Z,2.70
2022-11-23T13:20:38.091Z,2.90
2022-11-23T13:30:59.523Z,2.80
2022-11-23T13:40:37.367Z,3.20
2022-11-23T13:50:36.848Z,2.90
2022-11-23T14:00:36.687Z,3.40
2022-11-23T14:10:36.839Z,3.00
2022-11-23T14:20:35.756Z,2.70
2022-11-23T14:30:35.380Z,2.50
2022-11-23T14:40:35.149Z,2.50
2022-11-23T14:50:34.640Z,2.40
2022-11-23T15:00:34.480Z,2.30
2022-11-23T15:10:33.871Z,2.50
2022-11-23T15:20:33.810Z,2.40
2022-11-23T15:30:33.108Z,2.40
2022-11-23T15:40:32.745Z,2.10
2022-11-23T15:50:34.155Z,2.50
2022-11-23T16:00:32.103Z,2.10
2022-11-23T16:10:31.735Z,2.10
2022-11-23T16:20:31.489Z,2.30
2022-11-23T16:30:30.983Z,2.30
2022-11-23T16:40:30.451Z,2.30
2022-11-23T16:50:30.067Z,2.40
2022-11-23T17:00:29.995Z,2.20
2022-11-23T17:10:29.306Z,2.00
2022-11-23T17:20:28.932Z,2.20
2022-11-23T17:30:28.625Z,2.60
2022-11-23T17:40:28.376Z,2.60
2022-11-23T17:50:27.947Z,2.40
2022-11-23T18:00:27.736Z,2.80
2022-11-23T18:10:27.047Z,2.20
2022-11-23T18:20:27.051Z,2.40
2022-11-23T18:30:26.290Z,2.40
2022-11-23T18:40:26.054Z,2.00
2022-11-23T18:50:25.644Z,2.10
2022-11-23T19:00:25.131Z,2.20
2022-11-23T19:10:24.763Z,2.40
2022-11-23T19:20:24.514Z,2.60
2022-11-23T19:30:23.977Z,2.90
2022-11-23T19:40:23.949Z,2.50
2022-11-23T19:50:23.342Z,3.00
2022-11-23T20:00:22.974Z,3.00
2022-11-23T20:10:22.560Z,3.20
2022-11-23T20:20:22.184Z,2.50
2022-11-23T20:30:21.659Z,2.70
2022-11-23T20:40:21.421Z,2.40
2022-11-23T20:50:20.859Z,2.60
2022-11-23T21:00:20.589Z,2.70
2022-11-23T21:10:20.102Z,2.70
2022-11-23T21:20:19.977Z,2.80
2022-11-23T21:30:19.453Z,3.00
2022-11-23T21:40:19.069Z,2.90
2022-11-23T21:50:18.691Z,3.00
2022-11-23T22:00:18.339Z,3.00
2022-11-23T22:10:17.961Z,3.40
2022-11-23T22:20:17.601Z,3.30
2022-11-23T22:30:17.072Z,3.00
2022-11-23T22:40:16.826Z,3.40
2022-11-23T22:50:16.324Z,3.40
2022-11-23T23:00:16.255Z,3.10
2022-11-23T23:10:15.582Z,3.50
2022-11-23T23:20:15.373Z,3.50
2022-11-23T23:30:15.027Z,2.90
2022-11-23T23:40:14.620Z,3.10
2022-11-23T23:50:14.230Z,3.10
